createdAt,value
2018-10-12T00:00:53.264Z,8.20
2018-10-12T00:03:22.095Z,7.70
2018-10-12T00:05:50.967Z,8.97
2018-10-12T00:08:19.770Z,8.40
2018-10-12T00:10:48.634Z,7.70
2018-10-12T00:13:17.467Z,8.90
2018-10-12T00:15:46.279Z,8.07
2018-10-12T00:18:15.042Z,9.10
2018-10-12T00:20:43.974Z,8.30
2018-10-12T00:23:12.747Z,7.97
2018-10-12T00:25:41.515Z,7.43
2018-10-12T00:28:10.423Z,8.43
2018-10-12T00:30:39.306Z,7.90
2018-10-12T00:33:08.082Z,8.50
2018-10-12T00:35:36.993Z,8.13
2018-10-12T00:38:05.776Z,7.20
2018-10-12T00:40:34.777Z,7.10
2018-10-12T00:43:03.647Z,7.20
2018-10-12T00:45:32.326Z,7.37
2018-10-12T00:48:01.933Z,9.60
2018-10-12T00:50:32.192Z,7.43
2018-10-12T00:53:01.459Z,7.70
2018-10-12T00:55:32.634Z,7.97
2018-10-12T00:58:01.392Z,7.50
2018-10-12T01:00:30.267Z,8.23
2018-10-12T01:02:59.183Z,8.23
2018-10-12T01:05:27.987Z,7.50
2018-10-12T01:07:56.646Z,7.87
2018-10-12T01:10:25.680Z,7.57
2018-10-12T01:12:54.527Z,7.17
2018-10-12T01:15:23.255Z,8.33
2018-10-12T01:17:52.549Z,7.67
2018-10-12T01:20:21.656Z,7.30
2018-10-12T01:22:50.575Z,7.30
2018-10-12T01:25:19.544Z,7.87
2018-10-12T01:27:48.352Z,8.20
2018-10-12T01:30:17.158Z,8.27
2018-10-12T01:32:51.223Z,8.00
2018-10-12T01:35:20.129Z,8.13
2018-10-12T01:37:48.985Z,8.20
2018-10-12T01:40:17.914Z,7.33
2018-10-12T01:42:46.724Z,7.83
2018-10-12T01:45:15.483Z,7.17
2018-10-12T01:47:44.257Z,7.90
2018-10-12T01:50:13.113Z,8.27
2018-10-12T01:52:41.914Z,7.67
2018-10-12T01:55:10.690Z,7.80
2018-10-12T01:57:39.426Z,7.90
2018-10-12T02:00:08.748Z,7.53
2018-10-12T02:02:37.527Z,8.17
2018-10-12T02:05:06.867Z,7.17
2018-10-12T02:07:35.693Z,7.50
2018-10-12T02:10:04.686Z,7.30
2018-10-12T02:12:33.370Z,7.20
2018-10-12T02:15:02.277Z,7.53
2018-10-12T02:17:31.084Z,7.73
2018-10-12T02:19:59.910Z,7.13
2018-10-12T02:22:28.761Z,7.40
2018-10-12T02:24:57.730Z,8.33
2018-10-12T02:27:26.546Z,7.13
2018-10-12T02:29:55.366Z,8.00
2018-10-12T02:32:24.242Z,8.87
2018-10-12T02:34:52.988Z,7.97
2018-10-12T02:37:21.674Z,7.43
2018-10-12T02:39:50.462Z,6.73
2018-10-12T02:42:19.237Z,7.50
2018-10-12T02:44:47.992Z,8.27
2018-10-12T02:47:16.721Z,7.50
2018-10-12T02:49:45.418Z,8.33
2018-10-12T02:52:14.332Z,7.00
2018-10-12T02:54:43.202Z,8.30
2018-10-12T02:57:11.870Z,8.23
2018-10-12T02:59:40.581Z,8.87
2018-10-12T03:02:09.403Z,9.80
2018-10-12T03:04:38.373Z,10.23
2018-10-12T03:07:07.133Z,10.07
2018-10-12T03:09:36.047Z,10.13
2018-10-12T03:12:04.830Z,10.47
2018-10-12T03:14:33.570Z,9.50
2018-10-12T03:17:02.392Z,10.30
2018-10-12T03:19:31.210Z,10.23
2018-10-12T03:21:59.967Z,10.90
2018-10-12T03:24:28.885Z,9.97
2018-10-12T03:26:57.846Z,11.87
2018-10-12T03:29:26.930Z,9.50
2018-10-12T03:31:55.883Z,10.37
2018-10-12T03:34:24.714Z,9.73
2018-10-12T03:36:53.631Z,10.20
2018-10-12T03:39:22.539Z,10.40
2018-10-12T03:41:51.416Z,12.00
2018-10-12T03:44:20.530Z,11.20
2018-10-12T03:46:49.407Z,9.80
2018-10-12T03:49:18.343Z,9.87
2018-10-12T03:51:47.141Z,9.53
2018-10-12T03:54:15.926Z,10.40
2018-10-12T03:56:44.666Z,9.57
2018-10-12T03:59:13.571Z,10.00
2018-10-12T04:01:42.343Z,9.93
2018-10-12T04:04:11.214Z,10.40
2018-10-12T04:06:40.037Z,11.80
2018-10-12T04:09:09.143Z,9.67
2018-10-12T04:11:38.016Z,10.67
2018-10-12T04:14:06.730Z,10.37
2018-10-12T04:16:35.496Z,11.87
2018-10-12T04:19:04.290Z,10.67
2018-10-12T04:21:33.166Z,8.57
2018-10-12T04:24:01.958Z,9.30
2018-10-12T04:26:30.691Z,10.20
2018-10-12T04:28:59.454Z,9.80
2018-10-12T04:31:28.207Z,10.10
2018-10-12T04:33:57.025Z,10.77
2018-10-12T04:36:25.798Z,10.67
2018-10-12T04:40:30.726Z,9.60
2018-10-12T04:42:59.543Z,12.70
2018-10-12T04:45:28.555Z,11.40
2018-10-12T04:47:57.547Z,10.73
2018-10-12T04:50:26.456Z,10.60
2018-10-12T04:52:55.223Z,9.83
2018-10-12T04:55:24.003Z,10.50
2018-10-12T04:57:52.870Z,10.53
2018-10-12T05:00:21.690Z,10.07
2018-10-12T05:02:50.491Z,11.20
2018-10-12T05:05:19.409Z,9.73
2018-10-12T05:07:48.263Z,10.70
2018-10-12T05:10:17.069Z,11.03
2018-10-12T05:12:45.830Z,9.70
2018-10-12T05:15:14.636Z,12.23
2018-10-12T05:17:43.348Z,10.53
2018-10-12T05:20:12.166Z,10.73
2018-10-12T05:22:40.993Z,10.73
2018-10-12T05:25:09.766Z,10.30
2018-10-12T05:27:38.555Z,9.97
2018-10-12T05:30:07.426Z,9.60
2018-10-12T05:32:36.373Z,12.20
2018-10-12T05:35:05.190Z,10.67
2018-10-12T05:37:34.002Z,9.30
2018-10-12T05:40:02.958Z,9.40
2018-10-12T05:42:31.609Z,8.83
2018-10-12T05:45:00.363Z,10.30
2018-10-12T05:47:29.286Z,10.70
2018-10-12T05:50:06.891Z,10.60
2018-10-12T05:52:36.642Z,8.80
2018-10-12T05:55:05.559Z,9.67
2018-10-12T05:57:38.095Z,9.77
2018-10-12T06:00:07.082Z,13.30
2018-10-12T06:02:35.968Z,14.40
2018-10-12T06:05:05.153Z,11.37
2018-10-12T06:07:34.262Z,10.43
2018-10-12T06:10:03.076Z,10.93
2018-10-12T06:12:31.979Z,11.70
2018-10-12T06:15:00.873Z,10.63
2018-10-12T06:17:29.591Z,10.47
2018-10-12T06:19:58.517Z,9.90
2018-10-12T06:22:27.281Z,9.60
2018-10-12T06:24:56.130Z,9.90
2018-10-12T06:27:24.884Z,9.40
2018-10-12T06:29:53.674Z,9.63
2018-10-12T06:32:22.538Z,9.10
2018-10-12T06:34:51.334Z,9.57
2018-10-12T06:37:20.160Z,10.17
2018-10-12T06:39:49.090Z,10.30
2018-10-12T06:42:17.798Z,10.60
2018-10-12T06:44:46.808Z,9.90
2018-10-12T06:47:16.017Z,9.40
2018-10-12T06:49:44.903Z,8.87
2018-10-12T06:52:13.837Z,9.30
2018-10-12T06:54:42.685Z,10.90
2018-10-12T06:57:11.558Z,10.90
2018-10-12T06:59:40.417Z,11.40
2018-10-12T07:02:09.455Z,9.97
2018-10-12T07:04:38.507Z,10.50
2018-10-12T07:07:07.383Z,10.87
2018-10-12T07:09:36.185Z,10.20
2018-10-12T07:12:05.135Z,10.17
2018-10-12T07:14:57.031Z,10.00
2018-10-12T07:17:50.408Z,9.50
2018-10-12T07:20:20.031Z,9.83
2018-10-12T07:22:48.869Z,9.97
2018-10-12T07:25:17.623Z,8.57
2018-10-12T07:27:46.507Z,8.10
2018-10-12T07:30:15.246Z,9.03
2018-10-12T07:32:44.131Z,8.20
2018-10-12T07:35:13.046Z,8.87
2018-10-12T07:37:42.196Z,8.87
2018-10-12T07:40:10.967Z,8.13
2018-10-12T07:42:39.699Z,8.60
2018-10-12T07:45:08.823Z,8.07
2018-10-12T07:47:38.128Z,8.97
2018-10-12T07:50:07.062Z,8.33
2018-10-12T07:52:35.981Z,10.20
2018-10-12T07:55:04.921Z,7.73
2018-10-12T07:57:33.936Z,8.23
2018-10-12T08:00:02.752Z,8.40
2018-10-12T08:02:31.475Z,8.07
2018-10-12T08:05:00.262Z,8.27
2018-10-12T08:07:29.209Z,9.40
2018-10-12T08:09:57.989Z,9.03
2018-10-12T08:12:26.890Z,7.90
2018-10-12T08:14:55.666Z,8.20
2018-10-12T08:17:24.590Z,8.63
2018-10-12T08:19:53.399Z,8.00
2018-10-12T08:22:22.826Z,9.57
2018-10-12T08:24:51.632Z,8.00
2018-10-12T08:27:20.636Z,8.77
2018-10-12T08:29:49.607Z,8.17
2018-10-12T08:32:18.706Z,8.20
2018-10-12T08:34:47.442Z,8.03
2018-10-12T08:37:16.214Z,7.90
2018-10-12T08:39:46.594Z,9.00
2018-10-12T08:42:15.402Z,7.63
2018-10-12T08:44:44.146Z,8.07
2018-10-12T08:47:13.163Z,7.40
2018-10-12T08:49:42.240Z,7.70
2018-10-12T08:52:11.080Z,7.40
2018-10-12T08:54:39.962Z,8.07
2018-10-12T08:57:08.796Z,7.70
2018-10-12T08:59:37.517Z,7.87
2018-10-12T09:02:06.789Z,7.20
2018-10-12T09:04:35.614Z,7.67
2018-10-12T09:07:04.346Z,7.50
2018-10-12T09:09:33.090Z,7.63
2018-10-12T09:12:01.912Z,6.33
2018-10-12T09:14:30.647Z,8.00
2018-10-12T09:16:59.586Z,7.37
2018-10-12T09:19:28.445Z,7.00
2018-10-12T09:21:57.481Z,7.30
2018-10-12T09:24:26.261Z,6.40
2018-10-12T09:26:55.042Z,6.23
2018-10-12T09:29:23.911Z,6.13
2018-10-12T09:31:52.728Z,5.63
2018-10-12T09:34:21.650Z,6.80
2018-10-12T09:36:50.635Z,5.53
2018-10-12T09:39:19.424Z,5.30
2018-10-12T09:41:48.246Z,5.70
2018-10-12T09:44:17.017Z,6.37
2018-10-12T09:46:45.770Z,5.40
2018-10-12T09:49:14.562Z,7.00
2018-10-12T09:51:43.258Z,5.90
2018-10-12T09:54:12.032Z,5.37
2018-10-12T09:56:40.929Z,5.83
2018-10-12T09:59:09.671Z,5.03
2018-10-12T10:01:43.621Z,5.60
2018-10-12T10:04:19.085Z,5.70
2018-10-12T10:06:47.954Z,5.20
2018-10-12T10:09:16.867Z,4.37
2018-10-12T10:11:45.646Z,4.93
2018-10-12T10:14:14.761Z,4.90
2018-10-12T10:16:43.512Z,3.93
2018-10-12T10:19:12.275Z,4.83
2018-10-12T10:21:41.090Z,4.10
2018-10-12T10:24:09.854Z,3.97
2018-10-12T10:26:38.794Z,4.10
2018-10-12T10:29:07.556Z,4.63
2018-10-12T10:31:36.358Z,3.50
2018-10-12T10:34:05.301Z,4.00
2018-10-12T10:36:34.006Z,3.60
2018-10-12T10:39:03.068Z,3.00
2018-10-12T10:41:31.866Z,4.20
2018-10-12T10:44:00.634Z,3.33
2018-10-12T10:46:29.606Z,4.10
2018-10-12T10:48:58.385Z,3.00
2018-10-12T10:51:27.166Z,3.10
2018-10-12T10:53:55.939Z,2.90
2018-10-12T10:56:24.699Z,2.97
2018-10-12T10:58:53.571Z,3.30
2018-10-12T11:01:22.543Z,3.70
2018-10-12T11:03:51.407Z,3.40
2018-10-12T11:06:20.166Z,3.50
2018-10-12T11:08:48.886Z,3.30
2018-10-12T11:11:17.662Z,3.03
2018-10-12T11:13:46.412Z,3.10
2018-10-12T11:16:15.189Z,4.20
2018-10-12T11:18:44.133Z,3.50
2018-10-12T11:21:13.096Z,3.37
2018-10-12T11:23:42.575Z,3.40
2018-10-12T11:26:12.079Z,3.87
2018-10-12T11:28:41.057Z,3.40
2018-10-12T11:31:09.814Z,2.70
2018-10-12T11:33:38.526Z,3.47
2018-10-12T11:36:07.734Z,3.20
2018-10-12T11:38:36.613Z,2.80
2018-10-12T11:41:05.745Z,3.70
2018-10-12T11:43:36.059Z,3.67
2018-10-12T11:46:05.220Z,3.40
2018-10-12T11:48:33.917Z,2.83
2018-10-12T11:51:02.778Z,2.93
2018-10-12T11:53:31.519Z,2.80
2018-10-12T11:56:00.529Z,2.90
2018-10-12T11:58:29.214Z,3.30
2018-10-12T12:00:58.150Z,3.87
2018-10-12T12:03:26.887Z,2.77
2018-10-12T12:05:55.715Z,3.03
2018-10-12T12:08:24.461Z,2.77
2018-10-12T12:10:53.373Z,3.33
2018-10-12T12:13:22.146Z,2.70
2018-10-12T12:15:50.890Z,2.57
2018-10-12T12:18:19.597Z,2.50
2018-10-12T12:20:48.498Z,2.40
2018-10-12T12:23:17.526Z,2.43
2018-10-12T12:25:46.277Z,2.83
2018-10-12T12:28:15.211Z,2.40
2018-10-12T12:30:44.101Z,2.47
2018-10-12T12:33:12.912Z,3.07
2018-10-12T12:35:42.291Z,2.90
2018-10-12T12:38:10.715Z,2.40
2018-10-12T12:40:39.399Z,2.70
2018-10-12T12:43:08.071Z,2.87
2018-10-12T12:45:36.809Z,2.30
2018-10-12T12:48:05.712Z,2.40
2018-10-12T12:50:34.403Z,2.03
2018-10-12T12:53:03.114Z,1.70
2018-10-12T12:55:32.041Z,2.30
2018-10-12T12:58:00.838Z,2.30
2018-10-12T13:00:29.688Z,3.17
2018-10-12T13:02:58.406Z,3.27
2018-10-12T13:05:27.126Z,2.50
2018-10-12T13:07:56.131Z,3.07
2018-10-12T13:10:25.185Z,2.30
2018-10-12T13:12:54.043Z,2.43
2018-10-12T13:15:22.816Z,2.33
2018-10-12T13:17:51.499Z,2.27
2018-10-12T13:20:20.272Z,2.27
2018-10-12T13:22:49.158Z,2.77
2018-10-12T13:25:17.930Z,1.90
2018-10-12T13:27:46.770Z,2.37
2018-10-12T13:30:15.942Z,2.27
2018-10-12T13:32:44.699Z,2.20
2018-10-12T13:35:13.530Z,2.03
2018-10-12T13:37:42.433Z,1.87
2018-10-12T13:40:11.083Z,1.90
2018-10-12T13:42:40.091Z,2.13
2018-10-12T13:45:09.066Z,2.37
2018-10-12T13:47:37.837Z,2.63
2018-10-12T13:50:07.432Z,2.03
2018-10-12T13:52:36.260Z,1.90
2018-10-12T13:55:05.086Z,2.10
2018-10-12T13:57:33.828Z,2.40
2018-10-12T14:00:02.634Z,2.30
2018-10-12T14:02:31.810Z,2.10
2018-10-12T14:05:00.526Z,1.80
2018-10-12T14:07:29.294Z,1.90
2018-10-12T14:09:58.127Z,1.70
2018-10-12T14:12:27.213Z,1.57
2018-10-12T14:14:56.082Z,1.93
2018-10-12T14:17:24.895Z,2.80
2018-10-12T14:19:53.658Z,2.50
2018-10-12T14:22:22.578Z,2.20
2018-10-12T14:24:51.326Z,3.13
2018-10-12T14:27:20.210Z,2.00
2018-10-12T14:29:48.945Z,2.50
2018-10-12T14:32:17.790Z,3.10
2018-10-12T14:34:46.556Z,2.40
2018-10-12T14:37:15.366Z,2.97
2018-10-12T14:39:44.159Z,2.10
2018-10-12T14:42:12.956Z,2.20
2018-10-12T14:44:42.228Z,2.40
2018-10-12T14:47:11.046Z,2.53
2018-10-12T14:49:39.719Z,2.50
2018-10-12T14:52:08.508Z,2.90
2018-10-12T14:54:37.219Z,2.90
2018-10-12T14:57:10.123Z,3.23
2018-10-12T14:59:39.224Z,3.10
2018-10-12T15:02:08.012Z,2.80
2018-10-12T15:04:36.795Z,2.47
2018-10-12T15:07:05.622Z,2.80
2018-10-12T15:09:34.327Z,2.63
2018-10-12T15:12:03.175Z,2.40
2018-10-12T15:15:17.608Z,2.33
2018-10-12T15:17:46.889Z,2.00
2018-10-12T15:20:15.678Z,2.53
2018-10-12T15:22:44.817Z,2.63
2018-10-12T15:25:13.874Z,2.70
2018-10-12T15:27:43.285Z,2.50
2018-10-12T15:30:12.910Z,2.50
2018-10-12T15:32:41.891Z,2.97
2018-10-12T15:35:11.021Z,2.30
2018-10-12T15:37:40.728Z,2.60
2018-10-12T15:40:10.254Z,2.80
2018-10-12T15:42:39.466Z,2.50
2018-10-12T15:45:08.490Z,2.17
2018-10-12T15:47:37.376Z,3.73
2018-10-12T15:50:06.479Z,3.20
2018-10-12T15:52:35.289Z,2.17
2018-10-12T15:55:04.149Z,2.13
2018-10-12T15:57:33.219Z,2.90
2018-10-12T16:00:01.988Z,2.90
2018-10-12T16:02:30.716Z,2.60
2018-10-12T16:04:59.478Z,3.20
2018-10-12T16:07:28.310Z,5.13
2018-10-12T16:09:57.170Z,4.40
2018-10-12T16:12:25.944Z,4.23
2018-10-12T16:14:54.837Z,3.67
2018-10-12T16:17:23.682Z,3.03
2018-10-12T16:19:52.463Z,4.07
2018-10-12T16:22:23.062Z,4.70
2018-10-12T16:25:02.994Z,2.40
2018-10-12T16:27:31.777Z,2.60
2018-10-12T16:30:00.838Z,2.97
2018-10-12T16:32:30.323Z,2.90
2018-10-12T16:34:59.011Z,3.90
2018-10-12T16:37:27.870Z,3.70
2018-10-12T16:39:56.622Z,4.40
2018-10-12T16:42:25.370Z,4.90
2018-10-12T16:44:54.212Z,4.40
2018-10-12T16:47:22.994Z,4.30
2018-10-12T16:49:51.782Z,4.20
2018-10-12T16:52:20.564Z,4.40
2018-10-12T16:54:49.525Z,3.60
2018-10-12T16:57:22.533Z,2.97
2018-10-12T16:59:51.288Z,4.07
2018-10-12T17:02:19.999Z,4.67
2018-10-12T17:04:48.852Z,3.93
2018-10-12T17:07:17.466Z,4.30
2018-10-12T17:09:46.295Z,4.10
2018-10-12T17:12:15.056Z,5.30
2018-10-12T17:14:44.850Z,5.27
2018-10-12T17:17:13.771Z,4.30
2018-10-12T17:19:42.613Z,5.30
2018-10-12T17:22:11.433Z,5.20
2018-10-12T17:24:40.294Z,4.53
2018-10-12T17:27:09.230Z,5.13
2018-10-12T17:29:38.083Z,4.17
2018-10-12T17:32:07.009Z,3.83
2018-10-12T17:34:35.802Z,4.53
2018-10-12T17:37:04.626Z,5.20
2018-10-12T17:39:33.442Z,4.07
2018-10-12T17:42:10.980Z,4.73
2018-10-12T17:44:39.820Z,4.73
2018-10-12T17:47:08.780Z,4.53
2018-10-12T17:49:37.676Z,4.70
2018-10-12T17:52:06.493Z,5.43
2018-10-12T17:54:35.318Z,5.10
2018-10-12T17:57:05.246Z,4.67
2018-10-12T17:59:34.146Z,4.17
2018-10-12T18:02:03.653Z,7.00
2018-10-12T18:04:32.859Z,7.70
2018-10-12T18:07:01.931Z,5.20
2018-10-12T18:09:30.834Z,4.43
2018-10-12T18:11:59.730Z,21.30
2018-10-12T18:14:28.947Z,7.43
2018-10-12T18:16:57.731Z,5.90
2018-10-12T18:19:26.506Z,5.80
2018-10-12T18:21:55.490Z,4.30
2018-10-12T18:24:24.175Z,5.53
2018-10-12T18:26:52.869Z,5.53
2018-10-12T18:29:21.785Z,4.93
2018-10-12T18:31:50.965Z,5.50
2018-10-12T18:34:19.815Z,5.37
2018-10-12T18:36:48.607Z,6.03
2018-10-12T18:39:17.253Z,5.07
2018-10-12T18:41:46.119Z,5.30
2018-10-12T18:44:14.818Z,5.30
2018-10-12T18:46:43.620Z,5.93
2018-10-12T18:49:12.610Z,5.40
2018-10-12T18:51:41.503Z,6.30
2018-10-12T18:54:10.340Z,5.83
2018-10-12T18:56:39.255Z,6.00
2018-10-12T18:59:08.093Z,6.57
2018-10-12T19:01:36.836Z,5.80
2018-10-12T19:04:06.503Z,6.00
2018-10-12T19:06:35.481Z,6.90
2018-10-12T19:09:06.155Z,6.37
2018-10-12T19:11:35.457Z,5.63
2018-10-12T19:14:04.379Z,6.33
2018-10-12T19:16:36.329Z,5.40
2018-10-12T19:19:05.850Z,6.37
2018-10-12T19:21:34.631Z,5.47
2018-10-12T19:24:03.567Z,5.57
2018-10-12T19:26:32.299Z,5.60
2018-10-12T19:29:01.204Z,5.67
2018-10-12T19:31:29.961Z,5.37
2018-10-12T19:33:58.903Z,8.60
2018-10-12T19:36:28.274Z,8.40
2018-10-12T19:38:57.195Z,8.77
2018-10-12T19:41:26.010Z,7.67
2018-10-12T19:43:54.776Z,8.70
2018-10-12T19:46:23.563Z,7.23
2018-10-12T19:48:52.339Z,8.37
2018-10-12T19:51:21.130Z,7.60
2018-10-12T19:53:49.908Z,7.20
2018-10-12T19:56:18.734Z,7.03
2018-10-12T19:58:47.483Z,6.63
2018-10-12T20:01:16.574Z,6.37
2018-10-12T20:03:45.436Z,5.73
2018-10-12T20:06:14.175Z,6.47
2018-10-12T20:08:42.958Z,7.00
2018-10-12T20:11:11.887Z,5.63
2018-10-12T20:13:40.672Z,6.37
2018-10-12T20:16:09.422Z,6.37
2018-10-12T20:18:38.226Z,6.33
2018-10-12T20:21:07.368Z,7.13
2018-10-12T20:23:36.210Z,8.13
2018-10-12T20:26:05.084Z,6.90
2018-10-12T20:28:33.826Z,7.00
2018-10-12T20:31:02.692Z,6.20
2018-10-12T20:33:31.691Z,6.83
2018-10-12T20:36:00.410Z,5.90
2018-10-12T20:38:29.375Z,8.30
2018-10-12T20:40:58.281Z,6.23
2018-10-12T20:43:27.092Z,6.70
2018-10-12T20:45:55.909Z,8.10
2018-10-12T20:48:24.731Z,7.47
2018-10-12T20:50:53.475Z,9.00
2018-10-12T20:53:22.389Z,10.03
2018-10-12T20:55:51.206Z,7.60
2018-10-12T20:58:20.019Z,8.40
2018-10-12T21:00:48.727Z,8.10
2018-10-12T21:03:17.565Z,7.43
2018-10-12T21:05:46.431Z,8.03
2018-10-12T21:08:14.962Z,8.83
2018-10-12T21:10:43.726Z,51.40
2018-10-12T21:13:12.464Z,11.87
2018-10-12T21:15:41.399Z,8.00
2018-10-12T21:18:10.234Z,8.80
2018-10-12T21:20:39.021Z,7.90
2018-10-12T21:23:07.774Z,7.90
2018-10-12T21:25:36.608Z,7.90
2018-10-12T21:28:05.463Z,6.87
2018-10-12T21:30:34.193Z,6.83
2018-10-12T21:33:03.028Z,8.23
2018-10-12T21:35:31.761Z,7.17
2018-10-12T21:38:00.714Z,7.63
2018-10-12T21:40:29.483Z,6.50
2018-10-12T21:42:58.389Z,7.63
2018-10-12T21:45:27.314Z,8.27
2018-10-12T21:47:56.283Z,7.33
2018-10-12T21:50:25.245Z,6.53
2018-10-12T21:52:54.031Z,6.43
2018-10-12T21:55:22.802Z,7.10
2018-10-12T21:57:51.735Z,8.70
2018-10-12T22:00:20.502Z,9.70
2018-10-12T22:02:49.202Z,10.23
2018-10-12T22:05:18.060Z,10.30
2018-10-12T22:07:46.791Z,8.53
2018-10-12T22:10:15.703Z,11.47
2018-10-12T22:12:44.470Z,10.27
2018-10-12T22:15:13.452Z,7.87
2018-10-12T22:17:42.253Z,13.33
2018-10-12T22:20:11.176Z,8.80
2018-10-12T22:22:40.133Z,8.63
2018-10-12T22:25:08.927Z,9.17
2018-10-12T22:27:37.929Z,9.67
2018-10-12T22:30:07.572Z,9.20
2018-10-12T22:32:36.386Z,10.43
2018-10-12T22:35:05.247Z,23.17
2018-10-12T22:37:34.104Z,17.50
2018-10-12T22:40:02.846Z,15.37
2018-10-12T22:42:31.646Z,24.63
2018-10-12T22:45:00.473Z,43.37
2018-10-12T22:47:29.428Z,28.23
2018-10-12T22:49:58.453Z,40.50
2018-10-12T22:52:27.262Z,46.90
2018-10-12T22:54:56.185Z,81.83
2018-10-12T22:57:24.966Z,40.60
2018-10-12T22:59:53.720Z,18.60
2018-10-12T23:02:22.622Z,23.97
2018-10-12T23:04:51.652Z,18.67
2018-10-12T23:07:20.614Z,30.77
2018-10-12T23:09:49.568Z,57.20
2018-10-12T23:12:18.576Z,98.13
2018-10-12T23:14:47.417Z,51.87
2018-10-12T23:17:16.394Z,13.73
2018-10-12T23:19:45.214Z,24.33
2018-10-12T23:22:14.058Z,19.30
2018-10-12T23:24:42.951Z,225.23
2018-10-12T23:27:11.735Z,170.23
2018-10-12T23:29:40.818Z,120.00
2018-10-12T23:32:09.627Z,157.50
2018-10-12T23:34:38.434Z,267.53
2018-10-12T23:37:07.641Z,106.17
2018-10-12T23:39:36.364Z,103.00
2018-10-12T23:42:05.184Z,310.10
2018-10-12T23:44:34.000Z,163.53
2018-10-12T23:47:02.785Z,70.83
2018-10-12T23:49:31.728Z,92.23
2018-10-12T23:52:00.532Z,192.40
2018-10-12T23:54:29.409Z,29.43
2018-10-12T23:56:58.309Z,19.37
2018-10-12T23:59:27.773Z,221.33
